createdAt,value
2022-08-16T00:01:52.615Z,13.30
2022-08-16T00:04:20.130Z,13.20
2022-08-16T00:06:48.386Z,12.75
2022-08-16T00:09:16.908Z,10.68
2022-08-16T00:11:45.078Z,10.00
2022-08-16T00:14:16.293Z,9.77
2022-08-16T00:17:00.824Z,8.93
2022-08-16T00:19:41.726Z,8.30
2022-08-16T00:22:12.838Z,6.75
2022-08-16T00:24:41.440Z,7.10
2022-08-16T00:27:12.671Z,11.77
2022-08-16T00:29:40.556Z,9.75
2022-08-16T00:32:08.836Z,12.82
2022-08-16T00:34:43.601Z,10.80
2022-08-16T00:37:24.618Z,11.27
2022-08-16T00:39:57.672Z,8.55
2022-08-16T00:42:29.581Z,8.13
2022-08-16T00:45:01.344Z,7.82
2022-08-16T00:47:34.866Z,7.13
2022-08-16T00:50:08.203Z,8.02
2022-08-16T00:52:50.134Z,6.60
2022-08-16T00:55:20.240Z,8.27
2022-08-16T00:58:00.214Z,7.90
2022-08-16T01:00:29.860Z,7.50
2022-08-16T01:02:58.393Z,14.27
2022-08-16T01:05:27.344Z,10.05
2022-08-16T01:07:58.565Z,8.15
2022-08-16T01:10:31.399Z,7.15
2022-08-16T01:13:01.357Z,7.40
2022-08-16T01:15:32.553Z,6.82
2022-08-16T01:18:00.182Z,9.77
2022-08-16T01:20:30.389Z,8.20
2022-08-16T01:23:12.167Z,8.50
2022-08-16T01:25:42.244Z,10.73
2022-08-16T01:28:19.697Z,9.00
2022-08-16T01:33:19.169Z,6.57
2022-08-16T01:35:53.385Z,7.40
2022-08-16T01:38:28.230Z,8.43
2022-08-16T01:41:02.186Z,7.93
2022-08-16T01:43:31.727Z,8.88
2022-08-16T01:46:29.486Z,7.95
2022-08-16T01:48:50.122Z,7.38
2022-08-16T01:51:20.324Z,12.63
2022-08-16T01:53:54.507Z,13.50
2022-08-16T01:56:30.883Z,6.63
2022-08-16T01:59:00.518Z,7.75
2022-08-16T02:01:29.497Z,6.93
2022-08-16T02:04:10.970Z,5.95
2022-08-16T02:06:46.648Z,6.22
2022-08-16T02:09:19.619Z,6.53
2022-08-16T02:11:53.206Z,8.50
2022-08-16T02:14:27.338Z,10.93
2022-08-16T02:16:58.648Z,7.32
2022-08-16T02:19:59.407Z,7.50
2022-08-16T02:22:34.687Z,7.38
2022-08-16T02:25:05.094Z,8.35
2022-08-16T02:27:33.355Z,7.75
2022-08-16T02:30:05.099Z,4.93
2022-08-16T02:32:49.932Z,5.80
2022-08-16T02:35:23.292Z,9.35
2022-08-16T02:37:53.432Z,6.20
2022-08-16T02:40:25.970Z,5.40
2022-08-16T02:42:54.714Z,6.70
2022-08-16T02:45:24.835Z,8.35
2022-08-16T02:48:01.701Z,6.78
2022-08-16T02:50:55.226Z,5.18
2022-08-16T02:53:31.844Z,5.38
2022-08-16T02:56:00.595Z,6.13
2022-08-16T02:58:29.149Z,8.55
2022-08-16T03:00:58.341Z,7.15
2022-08-16T03:04:48.831Z,6.47
2022-08-16T03:06:41.565Z,7.05
2022-08-16T03:11:48.220Z,5.78
2022-08-16T03:14:21.400Z,5.85
2022-08-16T03:16:58.550Z,7.72
2022-08-16T03:19:48.770Z,5.82
2022-08-16T03:22:28.231Z,4.70
2022-08-16T03:25:04.742Z,6.38
2022-08-16T03:27:35.405Z,6.38
2022-08-16T03:30:16.937Z,5.95
2022-08-16T03:32:53.584Z,7.65
2022-08-16T03:35:32.767Z,5.97
2022-08-16T03:38:32.602Z,6.90
2022-08-16T03:40:53.758Z,6.60
2022-08-16T03:43:24.451Z,15.43
2022-08-16T03:46:47.624Z,13.43
2022-08-16T03:49:03.911Z,14.73
2022-08-16T03:51:31.872Z,11.43
2022-08-16T03:54:12.398Z,12.15
2022-08-16T03:56:57.816Z,13.50
2022-08-16T03:59:30.413Z,13.95
2022-08-16T04:02:12.626Z,12.88
2022-08-16T04:04:51.331Z,16.40
2022-08-16T04:07:18.957Z,9.50
2022-08-16T04:09:48.287Z,12.68
2022-08-16T04:12:53.504Z,13.23
2022-08-16T04:15:04.639Z,14.30
2022-08-16T04:17:38.411Z,13.82
2022-08-16T04:20:31.137Z,16.27
2022-08-16T04:22:58.724Z,11.05
2022-08-16T04:25:29.256Z,7.97
2022-08-16T04:27:57.128Z,10.15
2022-08-16T04:30:44.915Z,14.68
2022-08-16T04:33:15.661Z,12.57
2022-08-16T04:35:44.234Z,15.68
2022-08-16T04:38:21.174Z,14.15
2022-08-16T04:40:52.304Z,13.95
2022-08-16T04:43:22.256Z,8.20
2022-08-16T04:46:00.042Z,14.55
2022-08-16T04:48:32.710Z,16.13
2022-08-16T04:51:07.961Z,14.77
2022-08-16T04:53:44.480Z,11.77
2022-08-16T04:56:12.276Z,19.65
2022-08-16T04:58:46.642Z,14.27
2022-08-16T05:01:18.181Z,8.88
2022-08-16T05:03:59.671Z,11.77
2022-08-16T05:06:42.427Z,15.07
2022-08-16T05:09:49.283Z,12.82
2022-08-16T05:12:22.110Z,16.92
2022-08-16T05:15:02.430Z,14.82
2022-08-16T05:17:34.369Z,12.77
2022-08-16T05:20:35.582Z,18.35
2022-08-16T05:22:57.945Z,15.98
2022-08-16T05:25:40.723Z,18.73
2022-08-16T05:28:13.731Z,13.95
2022-08-16T05:30:50.311Z,14.38
2022-08-16T05:33:22.702Z,14.25
2022-08-16T05:35:54.939Z,14.60
2022-08-16T05:38:42.139Z,14.65
2022-08-16T05:41:13.800Z,18.60
2022-08-16T05:43:47.040Z,24.17
2022-08-16T05:46:28.619Z,18.13
2022-08-16T05:49:05.838Z,13.90
2022-08-16T05:51:39.896Z,15.40
2022-08-16T05:54:11.527Z,17.23
2022-08-16T05:56:42.834Z,14.35
2022-08-16T05:59:11.152Z,13.35
2022-08-16T06:01:39.439Z,16.10
2022-08-16T06:04:13.581Z,23.27
2022-08-16T06:06:57.648Z,10.02
2022-08-16T06:09:42.559Z,10.93
2022-08-16T06:12:26.675Z,17.92
2022-08-16T06:15:07.611Z,11.18
2022-08-16T06:17:43.111Z,13.43
2022-08-16T06:20:23.634Z,14.30
2022-08-16T06:22:59.007Z,12.95
2022-08-16T06:25:39.464Z,14.13
2022-08-16T06:28:09.785Z,17.58
2022-08-16T06:30:43.774Z,20.85
2022-08-16T06:33:22.031Z,18.23
2022-08-16T06:35:59.749Z,13.38
2022-08-16T06:38:33.351Z,11.40
2022-08-16T06:41:06.135Z,11.40
2022-08-16T06:43:42.144Z,12.60
2022-08-16T06:46:31.591Z,16.25
2022-08-16T06:49:05.437Z,13.55
2022-08-16T06:51:46.823Z,10.27
2022-08-16T06:54:20.644Z,13.88
2022-08-16T06:56:53.934Z,12.43
2022-08-16T06:59:25.605Z,11.35
2022-08-16T07:01:58.338Z,11.75
2022-08-16T07:04:32.669Z,13.35
2022-08-16T07:07:03.292Z,10.40
2022-08-16T07:09:32.519Z,16.88
2022-08-16T07:12:03.482Z,17.92
2022-08-16T07:14:33.856Z,14.27
2022-08-16T07:17:08.210Z,11.35
2022-08-16T07:20:03.450Z,11.93
2022-08-16T07:22:43.046Z,12.65
2022-08-16T07:25:28.112Z,10.40
2022-08-16T07:27:56.894Z,16.17
2022-08-16T07:30:45.962Z,15.32
2022-08-16T07:33:51.766Z,12.52
2022-08-16T07:36:26.439Z,16.25
2022-08-16T07:38:57.430Z,13.52
2022-08-16T07:41:27.935Z,17.48
2022-08-16T07:44:00.588Z,20.27
2022-08-16T07:46:37.874Z,16.20
2022-08-16T07:49:20.286Z,14.27
2022-08-16T07:51:48.051Z,39.50
2022-08-16T07:54:21.112Z,15.52
2022-08-16T07:57:05.192Z,21.08
2022-08-16T07:59:45.528Z,16.27
2022-08-16T08:02:20.080Z,18.88
2022-08-16T08:04:58.295Z,13.20
2022-08-16T08:07:29.316Z,14.48
2022-08-16T08:10:02.439Z,13.98
2022-08-16T08:12:36.187Z,14.18
2022-08-16T08:15:10.216Z,18.83
2022-08-16T08:17:42.538Z,9.70
2022-08-16T08:20:20.754Z,20.25
2022-08-16T08:23:00.942Z,13.52
2022-08-16T08:25:53.947Z,15.45
2022-08-16T08:28:25.791Z,14.95
2022-08-16T08:31:02.416Z,13.63
2022-08-16T08:33:33.954Z,19.95
2022-08-16T08:36:05.210Z,11.68
2022-08-16T08:38:45.045Z,17.40
2022-08-16T08:41:18.962Z,18.13
2022-08-16T08:43:52.498Z,9.98
2022-08-16T08:46:22.008Z,15.63
2022-08-16T08:48:59.435Z,18.05
2022-08-16T08:51:35.583Z,12.93
2022-08-16T08:54:06.943Z,14.63
2022-08-16T08:56:45.775Z,17.20
2022-08-16T08:59:34.637Z,15.95
2022-08-16T09:02:11.398Z,23.13
2022-08-16T09:04:57.694Z,21.02
2022-08-16T09:07:26.334Z,18.73
2022-08-16T09:10:06.110Z,15.73
2022-08-16T09:12:39.395Z,33.35
2022-08-16T09:15:13.450Z,26.25
2022-08-16T09:17:53.453Z,14.65
2022-08-16T09:20:26.206Z,27.70
2022-08-16T09:22:54.951Z,28.63
2022-08-16T09:25:33.769Z,26.27
2022-08-16T09:28:09.240Z,11.00
2022-08-16T09:30:44.066Z,17.98
2022-08-16T09:33:14.387Z,17.58
2022-08-16T09:35:42.890Z,15.93
2022-08-16T09:38:12.401Z,20.48
2022-08-16T09:40:59.372Z,22.48
2022-08-16T09:43:59.796Z,22.05
2022-08-16T09:46:45.750Z,25.10
2022-08-16T09:49:03.821Z,16.77
2022-08-16T09:51:37.390Z,14.55
2022-08-16T09:54:06.132Z,21.67
2022-08-16T09:56:37.928Z,19.75
2022-08-16T09:59:08.224Z,20.58
2022-08-16T10:01:43.553Z,16.70
2022-08-16T10:04:31.348Z,14.82
2022-08-16T10:07:01.636Z,22.52
2022-08-16T10:09:54.009Z,19.23
2022-08-16T10:12:42.762Z,14.20
2022-08-16T10:15:15.465Z,23.48
2022-08-16T10:17:45.877Z,16.13
2022-08-16T10:20:30.026Z,19.35
2022-08-16T10:23:03.707Z,15.80
2022-08-16T10:27:18.016Z,16.38
2022-08-16T10:28:30.709Z,19.67
2022-08-16T10:31:03.693Z,24.52
2022-08-16T10:33:33.632Z,16.17
2022-08-16T10:36:03.934Z,18.20
2022-08-16T10:38:33.125Z,15.70
2022-08-16T10:41:04.724Z,21.35
2022-08-16T10:43:32.275Z,32.60
2022-08-16T10:46:04.056Z,16.80
2022-08-16T10:48:52.464Z,18.90
2022-08-16T10:51:20.101Z,19.85
2022-08-16T10:54:01.370Z,21.95
2022-08-16T10:56:55.964Z,16.70
2022-08-16T10:59:38.297Z,19.05
2022-08-16T11:05:08.677Z,19.50
2022-08-16T11:07:51.428Z,11.30
2022-08-16T11:13:57.229Z,20.40
2022-08-16T11:16:25.287Z,18.25
2022-08-16T11:19:04.597Z,14.63
2022-08-16T11:21:37.655Z,17.60
2022-08-16T11:24:41.919Z,24.30
2022-08-16T11:27:23.015Z,17.02
2022-08-16T11:29:54.781Z,19.23
2022-08-16T11:32:32.397Z,21.45
2022-08-16T11:35:10.821Z,21.70
2022-08-16T11:40:33.724Z,23.75
2022-08-16T11:43:04.844Z,21.17
2022-08-16T11:45:33.884Z,18.60
2022-08-16T11:48:03.412Z,21.02
2022-08-16T11:50:33.686Z,13.18
2022-08-16T11:53:08.387Z,15.45
2022-08-16T11:55:38.148Z,17.30
2022-08-16T11:58:07.890Z,17.75
2022-08-16T12:00:50.321Z,21.98
2022-08-16T12:03:19.359Z,15.52
2022-08-16T12:05:51.942Z,15.55
2022-08-16T12:08:26.091Z,13.65
2022-08-16T12:10:55.430Z,13.48
2022-08-16T12:13:27.554Z,24.52
2022-08-16T12:15:56.304Z,18.63
2022-08-16T12:18:24.704Z,13.90
2022-08-16T12:20:55.239Z,13.27
2022-08-16T12:23:23.320Z,12.68
2022-08-16T12:25:50.989Z,13.93
2022-08-16T12:28:25.391Z,16.55
2022-08-16T12:31:07.730Z,14.02
2022-08-16T12:33:44.876Z,21.73
2022-08-16T12:36:14.148Z,12.57
2022-08-16T12:38:48.321Z,16.23
2022-08-16T12:41:24.511Z,25.85
2022-08-16T12:43:57.157Z,16.48
2022-08-16T12:46:29.191Z,15.60
2022-08-16T12:48:58.761Z,11.40
2022-08-16T12:51:58.019Z,20.30
2022-08-16T12:54:22.711Z,22.08
2022-08-16T12:56:51.556Z,19.25
2022-08-16T12:59:20.912Z,17.63
2022-08-16T13:01:50.418Z,20.23
2022-08-16T13:04:25.031Z,24.30
2022-08-16T13:06:53.289Z,22.58
2022-08-16T13:09:26.428Z,21.63
2022-08-16T13:12:04.223Z,12.95
2022-08-16T13:14:39.926Z,12.45
2022-08-16T13:17:17.045Z,16.52
2022-08-16T13:22:34.317Z,13.35
2022-08-16T13:25:01.974Z,14.65
2022-08-16T13:27:34.931Z,16.02
2022-08-16T13:30:35.494Z,29.83
2022-08-16T13:33:10.428Z,18.88
2022-08-16T13:35:43.097Z,27.17
2022-08-16T13:38:24.980Z,18.63
2022-08-16T13:40:55.965Z,21.10
2022-08-16T13:43:25.202Z,12.40
2022-08-16T13:45:55.472Z,16.52
2022-08-16T13:48:24.819Z,14.38
2022-08-16T13:50:54.919Z,15.18
2022-08-16T13:53:24.778Z,21.80
2022-08-16T13:55:58.524Z,17.10
2022-08-16T13:58:36.828Z,20.52
2022-08-16T14:01:09.734Z,16.10
2022-08-16T14:03:38.912Z,25.05
2022-08-16T14:06:07.870Z,13.25
2022-08-16T14:08:42.251Z,29.38
2022-08-16T14:11:11.880Z,19.95
2022-08-16T14:13:40.327Z,19.95
2022-08-16T14:16:23.573Z,22.88
2022-08-16T14:18:52.991Z,18.08
2022-08-16T14:21:22.112Z,10.85
2022-08-16T14:23:52.345Z,16.92
2022-08-16T14:26:21.486Z,19.63
2022-08-16T14:28:50.890Z,15.93
2022-08-16T14:31:18.554Z,17.25
2022-08-16T14:33:46.758Z,15.25
2022-08-16T14:36:18.638Z,16.88
2022-08-16T14:38:57.396Z,10.18
2022-08-16T14:41:24.956Z,15.68
2022-08-16T14:43:52.475Z,17.25
2022-08-16T14:46:20.480Z,14.73
2022-08-16T14:48:48.004Z,26.08
2022-08-16T14:51:16.018Z,25.65
2022-08-16T14:53:45.445Z,34.80
2022-08-16T14:56:17.466Z,25.23
2022-08-16T14:59:04.153Z,25.13
2022-08-16T15:01:57.369Z,22.55
2022-08-16T15:04:36.812Z,18.30
2022-08-16T15:07:06.967Z,18.25
2022-08-16T15:09:44.660Z,22.35
2022-08-16T15:12:30.931Z,15.70
2022-08-16T15:15:01.629Z,22.15
2022-08-16T15:17:34.005Z,18.90
2022-08-16T15:20:08.612Z,19.75
2022-08-16T15:22:37.937Z,17.13
2022-08-16T15:25:07.481Z,16.02
2022-08-16T15:27:42.197Z,19.20
2022-08-16T15:30:44.838Z,21.00
2022-08-16T15:33:07.910Z,22.75
2022-08-16T15:35:38.704Z,19.17
2022-08-16T15:38:09.268Z,22.65
2022-08-16T15:40:57.773Z,16.38
2022-08-16T15:43:33.975Z,32.25
2022-08-16T15:46:35.013Z,23.17
2022-08-16T15:49:11.990Z,17.05
2022-08-16T15:51:40.131Z,22.88
2022-08-16T15:54:29.154Z,24.08
2022-08-16T15:56:56.236Z,22.00
2022-08-16T15:59:26.967Z,33.03
2022-08-16T16:01:55.810Z,39.40
2022-08-16T16:04:25.868Z,68.88
2022-08-16T16:06:55.373Z,33.28
2022-08-16T16:09:34.608Z,33.60
2022-08-16T16:12:41.597Z,42.55
2022-08-16T16:14:55.098Z,81.93
2022-08-16T16:17:22.642Z,205.93
2022-08-16T16:19:53.768Z,219.75
2022-08-16T16:22:22.395Z,275.85
2022-08-16T16:24:52.995Z,254.77
2022-08-16T16:27:22.792Z,227.93
2022-08-16T16:29:57.734Z,225.65
2022-08-16T16:32:34.235Z,199.45
2022-08-16T16:35:03.262Z,157.93
2022-08-16T16:37:32.704Z,181.50
2022-08-16T16:40:02.344Z,163.15
2022-08-16T16:42:35.490Z,142.00
2022-08-16T16:45:11.842Z,125.65
2022-08-16T16:47:48.269Z,115.18
2022-08-16T16:50:16.829Z,111.32
2022-08-16T16:52:45.263Z,104.90
2022-08-16T16:55:14.772Z,90.28
2022-08-16T16:58:03.276Z,90.78
2022-08-16T17:00:37.683Z,87.78
2022-08-16T17:03:16.811Z,83.07
2022-08-16T17:05:57.306Z,81.80
2022-08-16T17:08:30.469Z,73.25
2022-08-16T17:10:58.205Z,80.05
2022-08-16T17:13:27.734Z,76.22
2022-08-16T17:15:56.088Z,66.40
2022-08-16T17:19:17.467Z,105.88
2022-08-16T17:21:12.431Z,175.18
2022-08-16T17:23:58.954Z,145.90
2022-08-16T17:26:29.669Z,166.85
2022-08-16T17:29:02.072Z,151.35
2022-08-16T17:31:40.815Z,133.10
2022-08-16T17:34:30.764Z,147.13
2022-08-16T17:37:00.651Z,129.07
2022-08-16T17:39:35.629Z,111.50
2022-08-16T17:42:25.373Z,109.45
2022-08-16T17:44:54.518Z,118.47
2022-08-16T17:47:22.637Z,114.28
2022-08-16T17:49:50.631Z,114.80
2022-08-16T17:52:21.350Z,105.97
2022-08-16T17:54:48.942Z,95.43
2022-08-16T17:57:17.061Z,79.47
2022-08-16T17:59:44.916Z,90.70
2022-08-16T18:02:41.050Z,94.25
2022-08-16T18:05:00.327Z,73.75
2022-08-16T18:07:27.943Z,68.97
2022-08-16T18:09:55.643Z,70.63
2022-08-16T18:12:51.212Z,76.30
2022-08-16T18:15:12.880Z,81.60
2022-08-16T18:17:42.090Z,64.18
2022-08-16T18:20:30.467Z,70.05
2022-08-16T18:23:08.445Z,68.00
2022-08-16T18:25:36.570Z,60.72
2022-08-16T18:28:04.792Z,58.00
2022-08-16T18:30:32.446Z,57.38
2022-08-16T18:33:00.164Z,54.20
2022-08-16T18:35:27.793Z,52.38
2022-08-16T18:37:55.976Z,55.22
2022-08-16T18:40:23.791Z,47.60
2022-08-16T18:42:54.795Z,47.00
2022-08-16T18:45:23.172Z,41.92
2022-08-16T18:47:51.104Z,42.30
2022-08-16T18:50:20.414Z,45.42
2022-08-16T18:52:52.444Z,41.25
2022-08-16T18:55:20.436Z,35.67
2022-08-16T18:57:50.831Z,39.15
2022-08-16T19:00:21.577Z,34.65
2022-08-16T19:02:58.835Z,36.90
2022-08-16T19:05:29.507Z,31.00
2022-08-16T19:07:57.017Z,37.45
2022-08-16T19:10:24.922Z,28.88
2022-08-16T19:12:53.219Z,32.53
2022-08-16T19:15:26.386Z,35.97
2022-08-16T19:17:53.954Z,28.50
2022-08-16T19:20:23.744Z,29.00
2022-08-16T19:23:04.676Z,33.45
2022-08-16T19:25:46.113Z,30.00
2022-08-16T19:28:21.830Z,28.20
2022-08-16T19:31:03.727Z,23.27
2022-08-16T19:33:31.533Z,20.95
2022-08-16T19:35:59.882Z,22.80
2022-08-16T19:38:27.464Z,24.60
2022-08-16T19:40:55.095Z,23.17
2022-08-16T19:43:22.848Z,18.63
2022-08-16T19:45:50.413Z,21.50
2022-08-16T19:48:18.137Z,25.60
2022-08-16T19:50:45.698Z,20.02
2022-08-16T19:53:19.308Z,22.55
2022-08-16T19:55:48.189Z,31.58
2022-08-16T19:58:17.095Z,20.95
2022-08-16T20:00:47.113Z,20.38
2022-08-16T20:03:21.158Z,22.05
2022-08-16T20:05:50.373Z,16.38
2022-08-16T20:08:18.637Z,21.38
2022-08-16T20:10:47.290Z,17.95
2022-08-16T20:13:17.221Z,18.73
2022-08-16T20:15:45.472Z,17.73
2022-08-16T20:18:24.698Z,18.52
2022-08-16T20:20:52.764Z,16.17
2022-08-16T20:23:24.808Z,18.40
2022-08-16T20:25:53.918Z,15.85
2022-08-16T20:28:40.668Z,17.90
2022-08-16T20:31:09.046Z,13.38
2022-08-16T20:33:36.663Z,16.48
2022-08-16T20:36:04.453Z,17.75
2022-08-16T20:38:31.991Z,17.23
2022-08-16T20:43:46.205Z,13.57
2022-08-16T20:46:14.123Z,14.35
2022-08-16T20:48:41.705Z,16.63
2022-08-16T20:51:10.912Z,16.55
2022-08-16T20:53:42.716Z,26.27
2022-08-16T20:56:10.770Z,38.70
2022-08-16T20:58:38.698Z,32.83
2022-08-16T21:01:07.099Z,24.35
2022-08-16T21:03:34.737Z,22.17
2022-08-16T21:06:02.506Z,27.00
2022-08-16T21:08:52.322Z,24.50
2022-08-16T21:11:18.115Z,25.70
2022-08-16T21:13:45.652Z,27.85
2022-08-16T21:16:16.033Z,21.88
2022-08-16T21:18:43.999Z,20.98
2022-08-16T21:21:14.518Z,29.30
2022-08-16T21:23:42.014Z,36.45
2022-08-16T21:26:10.973Z,29.50
2022-08-16T21:28:43.201Z,33.13
2022-08-16T21:31:15.627Z,31.67
2022-08-16T21:33:43.576Z,23.38
2022-08-16T21:36:12.003Z,25.83
2022-08-16T21:38:40.304Z,26.27
2022-08-16T21:41:08.959Z,19.75
2022-08-16T21:43:36.958Z,17.27
2022-08-16T21:46:05.487Z,16.60
2022-08-16T21:48:35.987Z,23.75
2022-08-16T21:51:05.528Z,24.83
2022-08-16T21:53:33.141Z,18.30
2022-08-16T21:56:00.923Z,14.27
2022-08-16T21:58:28.789Z,23.13
2022-08-16T22:00:56.286Z,17.23
2022-08-16T22:03:23.859Z,18.02
2022-08-16T22:06:13.041Z,16.35
2022-08-16T22:08:48.149Z,22.65
2022-08-16T22:11:18.478Z,18.35
2022-08-16T22:13:57.501Z,29.05
2022-08-16T22:16:26.760Z,14.57
2022-08-16T22:18:54.356Z,14.02
2022-08-16T22:21:22.121Z,14.57
2022-08-16T22:23:57.870Z,23.50
2022-08-16T22:26:30.229Z,14.07
2022-08-16T22:28:59.326Z,20.75
2022-08-16T22:31:27.521Z,19.80
2022-08-16T22:33:56.710Z,16.98
2022-08-16T22:36:28.298Z,16.00
2022-08-16T22:39:00.017Z,16.88
2022-08-16T22:41:32.073Z,18.27
2022-08-16T22:44:00.018Z,15.40
2022-08-16T22:46:27.673Z,12.02
2022-08-16T22:48:55.198Z,23.05
2022-08-16T22:51:23.744Z,29.75
2022-08-16T22:53:51.740Z,27.33
2022-08-16T22:56:20.760Z,24.10
2022-08-16T22:58:48.591Z,26.70
2022-08-16T23:01:16.878Z,22.17
2022-08-16T23:03:44.760Z,31.90
2022-08-16T23:06:12.563Z,21.38
2022-08-16T23:08:41.537Z,24.00
2022-08-16T23:11:29.414Z,23.63
2022-08-16T23:13:57.487Z,20.02
2022-08-16T23:16:33.081Z,25.30
2022-08-16T23:19:02.553Z,19.90
2022-08-16T23:21:30.201Z,19.98
2022-08-16T23:23:57.732Z,17.98
2022-08-16T23:26:47.105Z,18.42
2022-08-16T23:29:21.951Z,23.27
2022-08-16T23:31:53.931Z,16.88
2022-08-16T23:34:22.320Z,18.90
2022-08-16T23:36:50.323Z,19.23
2022-08-16T23:39:17.812Z,16.30
2022-08-16T23:41:45.295Z,22.90
2022-08-16T23:44:56.743Z,20.98
2022-08-16T23:47:00.394Z,17.95
2022-08-16T23:49:56.029Z,23.15
2022-08-16T23:52:15.686Z,19.08
2022-08-16T23:54:43.166Z,23.42
2022-08-16T23:57:10.958Z,27.20
2022-08-16T23:59:52.545Z,24.35
